createdAt,value
2023-02-09T00:00:01.923Z,12.45
2023-02-09T00:02:39.841Z,12.60
2023-02-09T00:05:06.417Z,13.45
2023-02-09T00:07:32.854Z,13.15
2023-02-09T00:09:59.135Z,13.38
2023-02-09T00:12:44.293Z,14.40
2023-02-09T00:15:10.595Z,13.20
2023-02-09T00:17:37.238Z,13.38
2023-02-09T00:20:04.130Z,13.38
2023-02-09T00:22:30.413Z,12.95
2023-02-09T00:24:57.435Z,12.55
2023-02-09T00:27:23.823Z,12.93
2023-02-09T00:29:50.113Z,12.25
2023-02-09T00:32:16.532Z,13.25
2023-02-09T00:34:42.808Z,12.00
2023-02-09T00:37:09.121Z,13.23
2023-02-09T00:39:35.407Z,12.88
2023-02-09T00:42:07.873Z,13.43
2023-02-09T00:44:35.629Z,13.35
2023-02-09T00:47:02.311Z,13.95
2023-02-09T00:49:28.762Z,13.63
2023-02-09T00:51:55.371Z,12.60
2023-02-09T00:54:21.893Z,12.90
2023-02-09T00:56:48.209Z,13.65
2023-02-09T00:59:14.997Z,12.73
2023-02-09T01:01:41.711Z,13.65
2023-02-09T01:04:08.052Z,13.23
2023-02-09T01:06:34.553Z,13.77
2023-02-09T01:09:01.855Z,13.10
2023-02-09T01:11:29.702Z,12.35
2023-02-09T01:13:57.133Z,12.90
2023-02-09T01:16:23.916Z,13.50
2023-02-09T01:18:50.272Z,13.43
2023-02-09T01:21:17.928Z,13.55
2023-02-09T01:23:44.357Z,13.23
2023-02-09T01:26:11.150Z,14.23
2023-02-09T01:28:37.551Z,14.07
2023-02-09T01:31:04.636Z,14.13
2023-02-09T01:33:31.499Z,13.55
2023-02-09T01:35:58.355Z,14.27
2023-02-09T01:38:25.291Z,14.10
2023-02-09T01:40:51.632Z,13.82
2023-02-09T01:43:18.019Z,15.02
2023-02-09T01:45:49.959Z,14.93
2023-02-09T01:48:20.390Z,14.52
2023-02-09T01:50:48.846Z,14.35
2023-02-09T01:53:15.668Z,14.73
2023-02-09T01:55:50.202Z,15.25
2023-02-09T01:58:18.621Z,14.05
2023-02-09T02:00:46.052Z,14.40
2023-02-09T02:03:14.744Z,15.10
2023-02-09T02:05:43.611Z,15.27
2023-02-09T02:08:19.063Z,15.52
2023-02-09T02:10:45.816Z,15.07
2023-02-09T02:13:12.594Z,15.00
2023-02-09T02:15:57.669Z,15.48
2023-02-09T02:18:37.886Z,14.77
2023-02-09T02:21:20.607Z,14.77
2023-02-09T02:24:05.818Z,15.60
2023-02-09T02:26:38.351Z,16.35
2023-02-09T02:29:26.250Z,15.63
2023-02-09T02:32:01.556Z,16.40
2023-02-09T02:34:36.284Z,15.10
2023-02-09T02:37:11.365Z,15.02
2023-02-09T02:39:45.528Z,15.45
2023-02-09T02:42:48.079Z,16.33
2023-02-09T02:45:33.361Z,15.73
2023-02-09T02:47:59.624Z,13.55
2023-02-09T02:50:27.084Z,13.85
2023-02-09T02:52:56.461Z,14.05
2023-02-09T02:55:25.490Z,15.38
2023-02-09T02:57:54.580Z,15.18
2023-02-09T03:00:30.340Z,16.15
2023-02-09T03:02:58.808Z,15.02
2023-02-09T03:05:26.516Z,15.93
2023-02-09T03:07:52.820Z,15.77
2023-02-09T03:10:32.443Z,15.38
2023-02-09T03:13:01.755Z,16.45
2023-02-09T03:15:28.091Z,15.68
2023-02-09T03:18:13.229Z,15.25
2023-02-09T03:20:52.311Z,15.23
2023-02-09T03:23:30.781Z,14.38
2023-02-09T03:25:57.970Z,15.82
2023-02-09T03:28:30.238Z,14.98
2023-02-09T03:30:57.409Z,15.27
2023-02-09T03:33:28.250Z,16.75
2023-02-09T03:35:59.026Z,15.82
2023-02-09T03:38:25.832Z,15.93
2023-02-09T03:40:52.182Z,15.93
2023-02-09T03:43:18.517Z,16.38
2023-02-09T03:45:44.867Z,16.15
2023-02-09T03:48:11.198Z,16.77
2023-02-09T03:50:37.819Z,15.80
2023-02-09T03:53:07.323Z,16.02
2023-02-09T03:55:33.848Z,16.35
2023-02-09T03:58:00.577Z,15.95
2023-02-09T04:00:26.976Z,16.10
2023-02-09T04:02:53.621Z,16.02
2023-02-09T04:05:19.987Z,16.05
2023-02-09T04:07:46.463Z,15.20
2023-02-09T04:10:12.793Z,16.30
2023-02-09T04:12:39.117Z,16.10
2023-02-09T04:15:05.591Z,15.80
2023-02-09T04:17:31.902Z,17.15
2023-02-09T04:19:58.173Z,16.63
2023-02-09T04:22:24.440Z,18.15
2023-02-09T04:24:50.735Z,16.15
2023-02-09T04:27:17.014Z,16.48
2023-02-09T04:29:43.380Z,16.58
2023-02-09T04:32:09.734Z,15.73
2023-02-09T04:34:36.070Z,17.05
2023-02-09T04:37:02.436Z,16.42
2023-02-09T04:39:28.823Z,16.92
2023-02-09T04:41:55.133Z,16.48
2023-02-09T04:44:21.460Z,15.60
2023-02-09T04:46:47.811Z,15.65
2023-02-09T04:49:14.163Z,16.38
2023-02-09T04:51:40.459Z,17.23
2023-02-09T04:54:06.795Z,16.75
2023-02-09T04:56:33.093Z,16.95
2023-02-09T04:59:17.943Z,17.13
2023-02-09T05:01:44.281Z,15.95
2023-02-09T05:04:10.605Z,17.73
2023-02-09T05:06:36.918Z,16.80
2023-02-09T05:09:03.405Z,16.38
2023-02-09T05:11:29.709Z,15.60
2023-02-09T05:13:56.251Z,16.25
2023-02-09T05:16:22.624Z,15.40
2023-02-09T05:18:50.491Z,15.43
2023-02-09T05:21:16.792Z,16.05
2023-02-09T05:23:43.075Z,16.63
2023-02-09T05:26:09.537Z,17.23
2023-02-09T05:28:35.844Z,15.75
2023-02-09T05:31:02.316Z,17.30
2023-02-09T05:33:28.759Z,16.95
2023-02-09T05:35:58.119Z,16.48
2023-02-09T05:38:24.489Z,17.73
2023-02-09T05:40:51.185Z,16.65
2023-02-09T05:43:17.798Z,17.10
2023-02-09T05:45:44.991Z,16.95
2023-02-09T05:48:11.340Z,16.88
2023-02-09T05:50:37.645Z,17.15
2023-02-09T05:53:06.784Z,17.13
2023-02-09T05:55:33.088Z,16.98
2023-02-09T05:57:59.672Z,16.65
2023-02-09T06:00:27.011Z,16.70
2023-02-09T06:02:53.297Z,16.88
2023-02-09T06:05:21.843Z,18.85
2023-02-09T06:07:48.339Z,17.58
2023-02-09T06:10:14.638Z,16.55
2023-02-09T06:12:41.460Z,16.95
2023-02-09T06:15:08.253Z,17.45
2023-02-09T06:17:34.584Z,16.90
2023-02-09T06:20:00.944Z,17.10
2023-02-09T06:22:29.071Z,17.50
2023-02-09T06:24:55.374Z,17.83
2023-02-09T06:27:21.640Z,17.50
2023-02-09T06:29:47.983Z,16.90
2023-02-09T06:32:14.295Z,16.45
2023-02-09T06:34:40.647Z,15.90
2023-02-09T06:37:06.951Z,17.65
2023-02-09T06:39:33.258Z,17.17
2023-02-09T06:41:59.658Z,17.58
2023-02-09T06:44:26.096Z,16.73
2023-02-09T06:46:52.381Z,16.40
2023-02-09T06:49:18.899Z,17.80
2023-02-09T06:51:45.426Z,17.17
2023-02-09T06:54:11.828Z,18.27
2023-02-09T06:56:38.130Z,16.55
2023-02-09T06:59:04.388Z,16.65
2023-02-09T07:01:30.703Z,17.90
2023-02-09T07:03:57.064Z,18.63
2023-02-09T07:06:23.669Z,18.40
2023-02-09T07:08:50.272Z,18.08
2023-02-09T07:11:17.531Z,18.35
2023-02-09T07:13:44.030Z,16.48
2023-02-09T07:16:10.749Z,17.80
2023-02-09T07:18:37.307Z,18.63
2023-02-09T07:21:05.492Z,17.08
2023-02-09T07:23:31.874Z,16.90
2023-02-09T07:26:01.892Z,17.40
2023-02-09T07:28:28.305Z,17.95
2023-02-09T07:30:54.832Z,18.17
2023-02-09T07:33:21.599Z,18.30
2023-02-09T07:35:48.430Z,18.50
2023-02-09T07:38:14.738Z,17.95
2023-02-09T07:40:46.393Z,17.90
2023-02-09T07:43:13.477Z,18.63
2023-02-09T07:45:39.966Z,17.88
2023-02-09T07:48:06.310Z,18.23
2023-02-09T07:50:32.667Z,17.98
2023-02-09T07:52:59.000Z,18.30
2023-02-09T07:55:25.299Z,16.08
2023-02-09T07:57:51.587Z,16.73
2023-02-09T08:00:18.177Z,16.33
2023-02-09T08:02:44.945Z,16.58
2023-02-09T08:05:18.017Z,17.40
2023-02-09T08:07:45.253Z,16.40
2023-02-09T08:10:11.780Z,16.55
2023-02-09T08:12:57.155Z,17.27
2023-02-09T08:15:23.563Z,16.70
2023-02-09T08:17:51.940Z,16.58
2023-02-09T08:20:20.510Z,17.77
2023-02-09T08:22:48.960Z,17.02
2023-02-09T08:25:16.514Z,17.63
2023-02-09T08:27:43.945Z,16.25
2023-02-09T08:30:11.029Z,16.45
2023-02-09T08:32:37.300Z,17.35
2023-02-09T08:35:03.814Z,17.48
2023-02-09T08:37:30.606Z,17.23
2023-02-09T08:39:57.092Z,17.38
2023-02-09T08:42:23.464Z,17.58
2023-02-09T08:44:49.868Z,18.00
2023-02-09T08:47:16.319Z,18.65
2023-02-09T08:49:42.685Z,17.23
2023-02-09T08:52:09.128Z,17.42
2023-02-09T08:54:35.725Z,19.30
2023-02-09T08:57:03.337Z,19.33
2023-02-09T08:59:29.704Z,18.92
2023-02-09T09:01:55.985Z,19.75
2023-02-09T09:04:22.336Z,19.85
2023-02-09T09:06:48.885Z,19.30
2023-02-09T09:09:15.190Z,21.00
2023-02-09T09:11:41.508Z,19.33
2023-02-09T09:14:07.796Z,19.35
2023-02-09T09:16:34.233Z,18.45
2023-02-09T09:19:00.630Z,19.85
2023-02-09T09:21:26.945Z,19.35
2023-02-09T09:23:53.261Z,18.17
2023-02-09T09:26:19.640Z,20.10
2023-02-09T09:28:48.821Z,21.95
2023-02-09T09:31:16.337Z,20.25
2023-02-09T09:33:43.116Z,18.70
2023-02-09T09:36:10.103Z,19.10
2023-02-09T09:38:36.956Z,21.73
2023-02-09T09:41:16.637Z,19.98
2023-02-09T09:43:43.048Z,20.67
2023-02-09T09:46:11.935Z,23.20
2023-02-09T09:48:42.075Z,20.60
2023-02-09T09:51:20.391Z,24.40
2023-02-09T09:53:49.153Z,21.63
2023-02-09T09:56:15.853Z,22.15
2023-02-09T09:58:43.061Z,23.88
2023-02-09T10:01:17.346Z,22.20
2023-02-09T10:03:43.741Z,21.25
2023-02-09T10:06:18.101Z,21.58
2023-02-09T10:08:56.174Z,20.20
2023-02-09T10:11:29.061Z,21.08
2023-02-09T10:13:56.592Z,20.77
2023-02-09T10:16:25.299Z,20.95
2023-02-09T10:18:52.441Z,21.25
2023-02-09T10:21:18.845Z,22.00
2023-02-09T10:23:46.322Z,19.73
2023-02-09T10:26:12.623Z,20.42
2023-02-09T10:28:40.510Z,20.00
2023-02-09T10:31:15.977Z,21.17
2023-02-09T10:33:43.891Z,20.42
2023-02-09T10:36:23.277Z,20.83
2023-02-09T10:38:49.646Z,20.92
2023-02-09T10:41:16.060Z,20.73
2023-02-09T10:43:42.487Z,20.73
2023-02-09T10:46:26.947Z,19.88
2023-02-09T10:48:53.366Z,21.67
2023-02-09T10:51:29.620Z,21.00
2023-02-09T10:53:57.735Z,20.55
2023-02-09T10:56:29.012Z,21.65
2023-02-09T10:59:14.667Z,20.85
2023-02-09T11:01:42.232Z,21.25
2023-02-09T11:04:20.105Z,21.90
2023-02-09T11:06:50.212Z,21.92
2023-02-09T11:09:18.333Z,21.15
2023-02-09T11:11:45.101Z,20.75
2023-02-09T11:14:12.565Z,19.83
2023-02-09T11:16:57.682Z,21.40
2023-02-09T11:19:39.381Z,20.60
2023-02-09T11:22:13.578Z,21.20
2023-02-09T11:24:44.887Z,21.02
2023-02-09T11:27:17.114Z,22.50
2023-02-09T11:29:50.702Z,22.13
2023-02-09T11:32:19.338Z,20.73
2023-02-09T11:34:51.731Z,21.45
2023-02-09T11:37:17.982Z,21.67
2023-02-09T11:39:49.731Z,21.05
2023-02-09T11:42:36.981Z,21.00
2023-02-09T11:45:21.974Z,22.50
2023-02-09T11:47:57.999Z,20.63
2023-02-09T11:50:28.079Z,21.05
2023-02-09T11:53:03.536Z,21.23
2023-02-09T11:55:33.420Z,21.88
2023-02-09T11:58:15.296Z,21.80
2023-02-09T12:00:55.918Z,21.95
2023-02-09T12:03:26.689Z,21.50
2023-02-09T12:05:53.699Z,21.35
2023-02-09T12:08:25.845Z,22.45
2023-02-09T12:11:04.002Z,22.08
2023-02-09T12:13:39.517Z,22.13
2023-02-09T12:16:13.132Z,23.00
2023-02-09T12:18:40.828Z,23.02
2023-02-09T12:21:07.555Z,23.73
2023-02-09T12:23:33.866Z,22.75
2023-02-09T12:26:03.159Z,22.35
2023-02-09T12:28:29.505Z,22.80
2023-02-09T12:30:58.685Z,21.88
2023-02-09T12:33:25.114Z,21.50
2023-02-09T12:36:01.048Z,21.38
2023-02-09T12:38:51.612Z,21.65
2023-02-09T12:41:22.928Z,22.92
2023-02-09T12:43:50.305Z,21.90
2023-02-09T12:46:16.713Z,22.40
2023-02-09T12:49:01.643Z,22.90
2023-02-09T12:51:47.187Z,22.45
2023-02-09T12:54:32.792Z,23.45
2023-02-09T12:57:17.839Z,22.70
2023-02-09T12:59:50.348Z,23.10
2023-02-09T13:02:30.049Z,22.88
2023-02-09T13:04:56.524Z,22.65
2023-02-09T13:07:26.990Z,23.80
2023-02-09T13:09:54.449Z,23.50
2023-02-09T13:12:23.342Z,22.67
2023-02-09T13:14:50.766Z,23.45
2023-02-09T13:17:30.987Z,23.15
2023-02-09T13:20:16.258Z,23.33
2023-02-09T13:23:04.806Z,23.98
2023-02-09T13:25:34.212Z,22.60
2023-02-09T13:28:07.803Z,22.25
2023-02-09T13:30:34.431Z,22.58
2023-02-09T13:33:19.399Z,21.55
2023-02-09T13:36:09.162Z,22.35
2023-02-09T13:38:42.541Z,23.50
2023-02-09T13:41:23.156Z,22.02
2023-02-09T13:43:49.546Z,21.52
2023-02-09T13:46:23.702Z,21.38
2023-02-09T13:48:50.122Z,22.50
2023-02-09T13:51:18.794Z,21.83
2023-02-09T13:54:01.387Z,22.85
2023-02-09T13:56:28.274Z,22.40
2023-02-09T13:58:55.215Z,22.92
2023-02-09T14:01:25.900Z,23.20
2023-02-09T14:03:58.707Z,21.83
2023-02-09T14:06:47.062Z,21.25
2023-02-09T14:09:33.666Z,21.02
2023-02-09T14:12:02.610Z,24.30
2023-02-09T14:15:07.713Z,21.77
2023-02-09T14:20:01.708Z,22.35
2023-02-09T14:22:35.381Z,21.90
2023-02-09T14:25:06.011Z,22.42
2023-02-09T14:27:33.493Z,22.73
2023-02-09T14:30:01.164Z,22.98
2023-02-09T14:32:37.999Z,21.48
2023-02-09T14:35:23.178Z,21.88
2023-02-09T14:37:50.445Z,21.92
2023-02-09T14:40:21.954Z,23.30
2023-02-09T14:43:19.739Z,21.65
2023-02-09T14:45:48.060Z,20.05
2023-02-09T14:48:21.775Z,21.80
2023-02-09T14:50:58.137Z,21.02
2023-02-09T14:53:26.110Z,21.35
2023-02-09T14:55:53.752Z,21.90
2023-02-09T14:58:20.235Z,22.23
2023-02-09T15:00:46.650Z,23.10
2023-02-09T15:03:12.967Z,20.52
2023-02-09T15:05:39.285Z,20.92
2023-02-09T15:08:08.830Z,21.60
2023-02-09T15:10:36.740Z,21.25
2023-02-09T15:13:04.040Z,20.23
2023-02-09T15:15:31.329Z,21.80
2023-02-09T15:17:59.121Z,21.25
2023-02-09T15:20:25.921Z,21.38
2023-02-09T15:22:53.195Z,21.25
2023-02-09T15:25:19.981Z,22.98
2023-02-09T15:27:53.729Z,21.48
2023-02-09T15:32:46.882Z,21.02
2023-02-09T15:35:15.896Z,21.05
2023-02-09T15:37:43.014Z,20.73
2023-02-09T15:40:12.328Z,21.70
2023-02-09T15:42:57.580Z,21.08
2023-02-09T15:45:44.593Z,21.83
2023-02-09T15:48:11.493Z,21.33
2023-02-09T15:50:39.954Z,21.02
2023-02-09T15:53:11.356Z,21.25
2023-02-09T15:55:38.178Z,20.88
2023-02-09T15:58:10.886Z,21.55
2023-02-09T16:00:37.247Z,21.08
2023-02-09T16:03:09.169Z,21.33
2023-02-09T16:05:35.480Z,21.42
2023-02-09T16:08:01.987Z,21.42
2023-02-09T16:10:29.341Z,21.25
2023-02-09T16:12:56.562Z,20.65
2023-02-09T16:15:24.272Z,21.48
2023-02-09T16:17:50.797Z,20.92
2023-02-09T16:20:17.763Z,22.73
2023-02-09T16:22:45.562Z,21.23
2023-02-09T16:25:18.881Z,20.35
2023-02-09T16:27:45.186Z,20.60
2023-02-09T16:30:15.887Z,19.73
2023-02-09T16:32:42.315Z,20.73
2023-02-09T16:35:16.721Z,21.42
2023-02-09T16:37:44.550Z,21.25
2023-02-09T16:40:17.007Z,23.00
2023-02-09T16:42:43.643Z,23.25
2023-02-09T16:45:16.588Z,22.00
2023-02-09T16:47:45.560Z,21.73
2023-02-09T16:50:35.559Z,21.63
2023-02-09T16:53:03.986Z,26.70
2023-02-09T16:55:32.046Z,29.08
2023-02-09T16:57:59.270Z,27.02
2023-02-09T17:00:27.591Z,28.55
2023-02-09T17:02:56.445Z,29.63
2023-02-09T17:05:25.817Z,26.80
2023-02-09T17:07:55.357Z,24.35
2023-02-09T17:10:24.222Z,24.13
2023-02-09T17:12:52.614Z,27.42
2023-02-09T17:15:29.519Z,30.45
2023-02-09T17:18:00.296Z,28.98
2023-02-09T17:20:30.381Z,27.30
2023-02-09T17:22:56.763Z,27.40
2023-02-09T17:25:24.216Z,25.58
2023-02-09T17:27:50.526Z,26.77
2023-02-09T17:30:17.393Z,26.83
2023-02-09T17:32:45.684Z,25.33
2023-02-09T17:35:14.810Z,23.45
2023-02-09T17:37:41.586Z,24.58
2023-02-09T17:40:08.973Z,22.50
2023-02-09T17:42:36.365Z,24.67
2023-02-09T17:45:03.339Z,23.90
2023-02-09T17:47:29.698Z,22.95
2023-02-09T17:49:55.957Z,23.27
2023-02-09T17:52:22.318Z,24.55
2023-02-09T17:54:49.340Z,24.30
2023-02-09T17:57:16.830Z,25.88
2023-02-09T17:59:43.133Z,26.38
2023-02-09T18:02:16.676Z,25.98
2023-02-09T18:04:43.099Z,28.30
2023-02-09T18:07:09.968Z,28.92
2023-02-09T18:09:36.515Z,28.38
2023-02-09T18:12:04.480Z,29.92
2023-02-09T18:14:31.973Z,29.00
2023-02-09T18:16:58.300Z,27.63
2023-02-09T18:19:24.785Z,30.23
2023-02-09T18:21:52.411Z,31.73
2023-02-09T18:24:19.943Z,30.73
2023-02-09T18:26:47.729Z,27.58
2023-02-09T18:29:14.443Z,27.15
2023-02-09T18:31:40.923Z,26.63
2023-02-09T18:34:07.807Z,26.98
2023-02-09T18:36:34.252Z,26.88
2023-02-09T18:39:00.657Z,26.55
2023-02-09T18:41:27.259Z,24.10
2023-02-09T18:43:54.553Z,23.05
2023-02-09T18:46:21.018Z,23.25
2023-02-09T18:48:47.356Z,24.85
2023-02-09T18:51:13.954Z,25.33
2023-02-09T18:53:40.590Z,27.05
2023-02-09T18:56:06.886Z,27.63
2023-02-09T18:58:33.422Z,25.67
2023-02-09T19:00:59.990Z,25.70
2023-02-09T19:03:26.646Z,25.92
2023-02-09T19:05:52.957Z,23.98
2023-02-09T19:08:19.248Z,25.52
2023-02-09T19:10:45.559Z,25.80
2023-02-09T19:13:11.921Z,25.85
2023-02-09T19:15:38.957Z,27.58
2023-02-09T19:18:05.454Z,28.75
2023-02-09T19:20:32.263Z,29.63
2023-02-09T19:22:58.541Z,29.65
2023-02-09T19:25:25.864Z,28.90
2023-02-09T19:27:52.843Z,28.08
2023-02-09T19:30:24.595Z,29.15
2023-02-09T19:32:52.340Z,26.77
2023-02-09T19:35:21.900Z,28.25
2023-02-09T19:37:54.884Z,28.33
2023-02-09T19:40:27.749Z,27.98
2023-02-09T19:42:55.082Z,21.70
2023-02-09T19:45:21.467Z,29.95
2023-02-09T19:47:47.782Z,30.73
2023-02-09T19:50:15.919Z,30.02
2023-02-09T19:52:45.313Z,29.30
2023-02-09T19:55:12.715Z,31.88
2023-02-09T19:57:39.066Z,33.42
2023-02-09T20:00:06.203Z,31.90
2023-02-09T20:02:34.869Z,31.08
2023-02-09T20:05:01.206Z,29.00
2023-02-09T20:07:27.558Z,27.45
2023-02-09T20:09:53.822Z,27.60
2023-02-09T20:12:22.149Z,26.90
2023-02-09T20:14:48.832Z,29.98
2023-02-09T20:17:15.104Z,29.00
2023-02-09T20:19:41.522Z,29.48
2023-02-09T20:22:07.825Z,29.10
2023-02-09T20:24:34.131Z,30.80
2023-02-09T20:27:00.496Z,32.10
2023-02-09T20:29:26.801Z,32.17
2023-02-09T20:31:53.267Z,31.38
2023-02-09T20:34:19.615Z,29.20
2023-02-09T20:36:48.042Z,27.33
2023-02-09T20:39:16.008Z,27.38
2023-02-09T20:42:05.895Z,29.08
2023-02-09T20:44:51.100Z,30.00
2023-02-09T20:47:17.490Z,30.17
2023-02-09T20:49:43.809Z,29.65
2023-02-09T20:52:10.169Z,29.50
2023-02-09T20:54:36.601Z,28.95
2023-02-09T20:57:03.657Z,30.02
2023-02-09T20:59:31.039Z,29.00
2023-02-09T21:01:57.718Z,29.90
2023-02-09T21:04:26.454Z,30.10
2023-02-09T21:06:53.056Z,31.08
2023-02-09T21:09:25.888Z,32.65
2023-02-09T21:11:53.311Z,34.00
2023-02-09T21:14:27.712Z,31.38
2023-02-09T21:16:59.188Z,32.00
2023-02-09T21:19:25.526Z,30.38
2023-02-09T21:21:52.005Z,32.03
2023-02-09T21:24:18.497Z,29.67
2023-02-09T21:26:44.764Z,30.70
2023-02-09T21:29:11.155Z,29.63
2023-02-09T21:31:37.503Z,29.17
2023-02-09T21:34:03.913Z,28.73
2023-02-09T21:36:30.188Z,30.80
2023-02-09T21:38:56.493Z,29.65
2023-02-09T21:41:42.402Z,30.08
2023-02-09T21:44:09.983Z,29.70
2023-02-09T21:46:36.338Z,29.65
2023-02-09T21:49:02.846Z,28.65
2023-02-09T21:51:29.112Z,29.25
2023-02-09T21:53:55.429Z,28.25
2023-02-09T21:56:21.961Z,29.35
2023-02-09T21:58:48.316Z,28.25
2023-02-09T22:01:14.668Z,27.88
2023-02-09T22:03:42.533Z,28.38
2023-02-09T22:06:09.228Z,28.60
2023-02-09T22:08:35.565Z,28.40
2023-02-09T22:11:02.965Z,29.05
2023-02-09T22:13:30.250Z,29.23
2023-02-09T22:15:56.593Z,28.20
2023-02-09T22:18:22.916Z,29.55
2023-02-09T22:20:50.690Z,28.27
2023-02-09T22:23:17.462Z,29.33
2023-02-09T22:25:43.710Z,30.25
2023-02-09T22:28:10.949Z,27.92
2023-02-09T22:30:37.288Z,28.85
2023-02-09T22:33:03.744Z,27.27
2023-02-09T22:35:30.107Z,27.65
2023-02-09T22:37:56.389Z,27.80
2023-02-09T22:40:23.726Z,29.05
2023-02-09T22:42:50.004Z,27.98
2023-02-09T22:45:16.297Z,28.10
2023-02-09T22:47:42.624Z,27.73
2023-02-09T22:50:09.108Z,27.05
2023-02-09T22:52:35.419Z,27.33
2023-02-09T22:55:01.725Z,27.17
2023-02-09T22:57:28.017Z,28.25
2023-02-09T22:59:54.296Z,27.90
2023-02-09T23:02:20.571Z,28.58
2023-02-09T23:04:46.860Z,27.10
2023-02-09T23:07:13.266Z,26.92
2023-02-09T23:09:39.567Z,28.08
2023-02-09T23:12:05.882Z,27.90
2023-02-09T23:14:32.286Z,29.02
2023-02-09T23:16:59.506Z,27.13
2023-02-09T23:19:25.797Z,29.15
2023-02-09T23:21:52.245Z,28.83
2023-02-09T23:24:21.515Z,29.92
2023-02-09T23:26:48.110Z,29.33
2023-02-09T23:29:15.393Z,27.98
2023-02-09T23:31:42.301Z,28.23
2023-02-09T23:34:12.032Z,26.45
2023-02-09T23:36:38.267Z,27.58
2023-02-09T23:39:05.806Z,27.92
2023-02-09T23:41:32.558Z,26.10
2023-02-09T23:43:59.409Z,28.17
2023-02-09T23:46:28.454Z,27.05
2023-02-09T23:48:55.848Z,27.60
2023-02-09T23:51:26.301Z,28.33
2023-02-09T23:53:53.242Z,28.63
2023-02-09T23:56:20.051Z,28.70
2023-02-09T23:58:47.088Z,29.10
